Time;durP1;ratioP1;P1;durP2;ratioP2;P2;SDS_P1;SDS_P2;PMS_P1;PMS_P2;Temp;Humidity;BMP_temperature;BMP_pressure;BME280_temperature;BME280_humidity;BME280_pressure;Samples;Min_cycle;Max_cycle;Signal;HPM_P1;HPM_P2
2022/10/14 00:02:01;;;;;;;36.77;13.50;;;4.90;99.90;;;;;;5053807;28;20183;-83
2022/10/14 00:04:28;;;;;;;40.90;15.17;;;4.90;99.90;;;;;;5054643;28;20552;-84
2022/10/14 00:06:54;;;;;;;35.13;15.07;;;4.80;99.90;;;;;;5053404;28;20545;-83
2022/10/14 00:09:20;;;;;;;41.00;14.40;;;4.80;99.90;;;;;;5053430;28;20270;-83
2022/10/14 00:11:46;;;;;;;42.33;14.40;;;4.80;99.90;;;;;;5054307;28;20214;-84
2022/10/14 00:14:15;;;;;;;38.10;13.63;;;4.90;99.90;;;;;;5054437;28;20180;-83
2022/10/14 00:16:43;;;;;;;41.43;14.70;;;4.90;99.90;;;;;;5054407;28;20226;-83
2022/10/14 00:19:09;;;;;;;31.47;12.03;;;4.90;99.90;;;;;;5036959;28;20251;-83
2022/10/14 00:21:37;;;;;;;24.33;12.03;;;4.90;99.90;;;;;;5054538;28;20631;-83
2022/10/14 00:24:03;;;;;;;31.23;12.17;;;4.90;99.90;;;;;;5053334;28;20179;-83
2022/10/14 00:26:33;;;;;;;38.37;12.23;;;4.90;99.90;;;;;;5053183;28;20209;-83
2022/10/14 00:29:00;;;;;;;31.97;13.37;;;4.90;99.90;;;;;;5052960;28;20168;-83
2022/10/14 00:31:27;;;;;;;30.73;11.23;;;4.90;99.90;;;;;;5054439;28;20227;-83
2022/10/14 00:33:53;;;;;;;26.63;10.87;;;4.90;99.90;;;;;;5053049;28;20176;-83
2022/10/14 00:36:20;;;;;;;22.53;10.97;;;4.90;99.90;;;;;;5053386;28;20185;-83
2022/10/14 00:38:47;;;;;;;33.63;12.33;;;4.80;99.90;;;;;;5052977;28;20182;-83
2022/10/14 00:41:22;;;;;;;20.93;8.90;;;4.80;99.90;;;;;;5054198;28;20187;-83
2022/10/14 00:44:13;;;;;;;20.40;9.53;;;4.80;99.90;;;;;;5054069;28;20159;-83
2022/10/14 00:46:41;;;;;;;29.17;11.40;;;4.80;99.90;;;;;;5059508;28;20721;-82
2022/10/14 00:49:14;;;;;;;18.17;8.67;;;4.70;99.90;;;;;;5056116;28;20177;-82
2022/10/14 00:51:45;;;;;;;22.33;9.93;;;4.70;99.90;;;;;;5056158;28;20218;-83
2022/10/14 00:54:14;;;;;;;20.83;9.97;;;4.70;99.90;;;;;;5055736;28;20175;-83
2022/10/14 00:56:40;;;;;;;17.43;9.23;;;4.70;99.90;;;;;;5056014;28;20179;-83
2022/10/14 00:59:07;;;;;;;23.57;11.10;;;4.70;99.90;;;;;;5073850;28;20172;-83
2022/10/14 01:01:33;;;;;;;22.10;10.10;;;4.70;99.90;;;;;;5055711;28;20183;-82
2022/10/14 01:03:59;;;;;;;24.40;11.30;;;4.70;99.90;;;;;;5055622;28;20197;-82
2022/10/14 01:06:30;;;;;;;32.60;13.13;;;4.70;99.90;;;;;;5056112;28;20179;-82
2022/10/14 01:08:56;;;;;;;30.70;10.17;;;4.70;99.90;;;;;;5055239;28;20183;-83
2022/10/14 01:11:31;;;;;;;21.97;10.47;;;4.70;99.90;;;;;;5055737;28;20218;-82
2022/10/14 01:14:20;;;;;;;21.73;9.37;;;4.70;99.90;;;;;;5055606;28;20220;-82
2022/10/14 01:17:01;;;;;;;20.77;9.17;;;4.60;99.90;;;;;;5044371;28;20194;-86
2022/10/14 01:19:41;;;;;;;27.10;7.90;;;4.60;99.90;;;;;;5073490;28;20171;-82
2022/10/14 01:22:37;;;;;;;21.43;9.17;;;4.60;99.90;;;;;;5055213;28;20328;-82
2022/10/14 01:25:26;;;;;;;20.13;9.23;;;4.50;99.90;;;;;;5073167;28;20202;-83
2022/10/14 01:28:16;;;;;;;23.93;9.40;;;4.50;99.90;;;;;;5055179;28;20191;-82
2022/10/14 01:30:50;;;;;;;20.00;9.23;;;4.50;99.90;;;;;;5073284;28;20163;-83
2022/10/14 01:33:24;;;;;;;27.30;10.87;;;4.40;99.90;;;;;;5073579;28;20255;-83
2022/10/14 01:36:02;;;;;;;18.93;10.07;;;4.40;99.90;;;;;;5073025;28;20170;-83
2022/10/14 01:38:33;;;;;;;21.73;10.07;;;4.40;99.90;;;;;;5073397;28;20167;-82
2022/10/14 01:41:04;;;;;;;25.80;10.53;;;4.40;99.90;;;;;;5072610;28;20638;-83
2022/10/14 01:43:32;;;;;;;30.70;13.07;;;4.40;99.90;;;;;;5073399;28;20253;-83
2022/10/14 01:45:59;;;;;;;21.27;8.67;;;4.40;99.90;;;;;;5055030;28;20639;-84
2022/10/14 01:48:31;;;;;;;40.27;12.47;;;4.40;99.90;;;;;;5073162;28;20195;-83
2022/10/14 01:51:00;;;;;;;30.70;11.87;;;4.40;99.90;;;;;;5072608;28;20199;-83
2022/10/14 01:53:33;;;;;;;32.90;11.83;;;4.30;99.90;;;;;;5074367;28;20178;-83
2022/10/14 01:56:00;;;;;;;32.83;11.80;;;4.30;99.90;;;;;;5057112;28;20183;-83
2022/10/14 01:58:30;;;;;;;26.13;11.27;;;4.30;99.90;;;;;;5075221;28;20190;-82
2022/10/14 02:00:56;;;;;;;30.40;13.13;;;4.30;99.90;;;;;;5074922;28;20208;-83
2022/10/14 02:03:22;;;;;;;28.90;12.67;;;4.30;99.90;;;;;;5057026;28;20181;-83
2022/10/14 02:06:00;;;;;;;33.37;15.07;;;4.30;99.90;;;;;;5058463;28;20219;-84
2022/10/14 02:09:10;;;;;;;48.67;18.30;;;4.30;99.90;;;;;;5059390;28;20174;-84
2022/10/14 02:12:06;;;;;;;34.00;14.43;;;4.30;99.90;;;;;;5076734;28;20203;-83
2022/10/14 02:15:22;;;;;;;33.33;13.20;;;4.30;99.90;;;;;;5059385;28;20179;-83
2022/10/14 02:17:55;;;;;;;24.03;9.77;;;4.20;99.90;;;;;;4995478;28;20181;-83
2022/10/14 02:20:26;;;;;;;15.87;8.67;;;4.20;99.90;;;;;;4995572;28;20180;-83
2022/10/14 02:23:20;;;;;;;21.53;9.77;;;4.20;99.90;;;;;;5036931;28;20221;-82
2022/10/14 02:25:48;;;;;;;25.87;10.33;;;4.10;99.90;;;;;;5076883;28;20240;-82
2022/10/14 02:28:19;;;;;;;24.67;10.23;;;4.20;99.90;;;;;;5076507;28;20179;-83
2022/10/14 02:30:50;;;;;;;19.13;8.57;;;4.10;99.90;;;;;;5058262;28;20179;-82
2022/10/14 02:33:19;;;;;;;19.63;9.30;;;4.10;99.90;;;;;;5058340;28;20268;-83
2022/10/14 02:35:48;;;;;;;33.23;11.27;;;4.10;99.90;;;;;;5076603;28;20179;-82
2022/10/14 02:38:14;;;;;;;22.73;8.37;;;4.10;99.90;;;;;;5057887;28;20701;-83
2022/10/14 02:40:46;;;;;;;18.60;8.50;;;4.10;99.90;;;;;;5078485;28;20183;-81
2022/10/14 02:43:12;;;;;;;14.97;7.77;;;4.10;99.90;;;;;;5060035;28;20266;-83
2022/10/14 02:45:40;;;;;;;23.07;8.97;;;4.10;99.90;;;;;;5077567;28;20182;-82
2022/10/14 02:48:07;;;;;;;17.83;8.30;;;4.00;99.90;;;;;;5059429;28;20235;-83
2022/10/14 02:50:33;;;;;;;24.13;8.70;;;4.10;99.90;;;;;;5077683;28;20623;-83
2022/10/14 02:52:59;;;;;;;14.10;7.13;;;4.10;99.90;;;;;;5076055;28;20227;-83
2022/10/14 02:55:24;;;;;;;21.23;9.87;;;4.10;99.90;;;;;;5075817;28;20184;-83
2022/10/14 02:57:50;;;;;;;18.77;9.20;;;4.10;99.90;;;;;;5076093;28;20303;-82
2022/10/14 03:00:16;;;;;;;17.17;8.90;;;4.10;99.90;;;;;;5057744;28;20182;-83
2022/10/14 03:02:42;;;;;;;21.57;9.43;;;4.10;99.90;;;;;;5076381;28;20183;-83
2022/10/14 03:05:08;;;;;;;15.50;8.23;;;4.10;99.90;;;;;;5041167;28;20240;-83
2022/10/14 03:07:34;;;;;;;14.67;7.67;;;4.00;99.90;;;;;;5076020;28;20187;-83
2022/10/14 03:10:00;;;;;;;15.50;8.33;;;4.00;99.90;;;;;;5057973;28;20190;-83
2022/10/14 03:12:25;;;;;;;20.77;8.30;;;4.00;99.90;;;;;;5057458;28;20298;-84
2022/10/14 03:14:51;;;;;;;15.90;8.13;;;4.00;99.90;;;;;;5057992;28;20189;-83
2022/10/14 03:17:17;;;;;;;14.83;7.80;;;4.00;99.90;;;;;;5039889;28;20209;-83
2022/10/14 03:19:42;;;;;;;13.10;7.07;;;3.90;99.90;;;;;;5057621;28;20183;-83
2022/10/14 03:22:08;;;;;;;15.30;8.83;;;3.90;99.90;;;;;;5075517;28;20537;-84
2022/10/14 03:24:34;;;;;;;17.50;8.17;;;3.90;99.90;;;;;;5076091;28;20233;-84
2022/10/14 03:26:59;;;;;;;38.53;13.13;;;3.90;99.90;;;;;;5057827;28;20183;-85
2022/10/14 03:29:25;;;;;;;22.93;9.70;;;3.90;99.90;;;;;;5057328;28;20175;-84
2022/10/14 03:31:51;;;;;;;14.33;9.10;;;3.90;99.90;;;;;;5056839;28;20219;-83
2022/10/14 03:34:16;;;;;;;23.73;11.10;;;3.90;99.90;;;;;;5057264;28;20289;-83
2022/10/14 03:36:42;;;;;;;22.50;9.93;;;3.90;99.90;;;;;;5075503;28;20207;-84
2022/10/14 03:39:09;;;;;;;23.40;10.87;;;3.80;99.90;;;;;;5057258;28;20179;-85
2022/10/14 03:41:35;;;;;;;16.60;9.47;;;3.80;99.90;;;;;;5076667;28;20647;-84
2022/10/14 03:44:01;;;;;;;31.40;11.73;;;3.80;99.90;;;;;;5057276;28;20274;-84
2022/10/14 03:46:27;;;;;;;24.27;11.20;;;3.80;99.90;;;;;;5056916;28;20641;-84
2022/10/14 03:48:52;;;;;;;20.30;8.60;;;3.80;99.90;;;;;;5056729;28;20219;-84
2022/10/14 03:51:18;;;;;;;15.70;9.00;;;3.70;99.90;;;;;;5056396;28;20279;-84
2022/10/14 03:53:44;;;;;;;20.73;9.20;;;3.70;99.90;;;;;;5056559;28;20633;-84
2022/10/14 03:56:10;;;;;;;22.50;9.07;;;3.70;99.90;;;;;;5038040;28;20191;-85
2022/10/14 03:58:35;;;;;;;23.23;9.93;;;3.70;99.90;;;;;;5074491;28;20272;-84
2022/10/14 04:01:01;;;;;;;16.40;8.93;;;3.80;99.90;;;;;;5068560;28;20202;-84
2022/10/14 04:03:26;;;;;;;16.87;8.67;;;3.80;99.90;;;;;;5042550;28;20511;-84
2022/10/14 04:05:52;;;;;;;17.23;9.77;;;3.90;99.90;;;;;;5065289;28;20225;-85
2022/10/14 04:08:18;;;;;;;24.33;10.73;;;3.90;99.90;;;;;;5044691;28;20179;-85
2022/10/14 04:10:43;;;;;;;17.80;9.27;;;4.00;99.90;;;;;;5062944;28;20188;-84
2022/10/14 04:13:09;;;;;;;18.27;9.03;;;4.10;99.90;;;;;;5051058;28;20218;-84
2022/10/14 04:15:36;;;;;;;20.00;8.80;;;4.10;99.90;;;;;;5068744;28;20176;-84
2022/10/14 04:18:02;;;;;;;21.20;8.70;;;4.20;99.90;;;;;;5060199;28;20172;-84
2022/10/14 04:20:28;;;;;;;23.83;8.73;;;4.20;99.90;;;;;;5042475;28;20207;-84
2022/10/14 04:22:53;;;;;;;28.63;11.53;;;4.30;99.90;;;;;;5055126;28;20644;-85
2022/10/14 04:25:19;;;;;;;13.67;8.53;;;4.30;99.90;;;;;;5056144;28;20179;-84
2022/10/14 04:27:45;;;;;;;30.43;9.23;;;4.40;99.90;;;;;;5053481;28;20184;-84
2022/10/14 04:30:11;;;;;;;35.73;15.90;;;4.40;99.90;;;;;;5048323;28;20187;-85
2022/10/14 04:32:37;;;;;;;24.13;11.10;;;4.50;99.90;;;;;;5046891;28;20682;-84
2022/10/14 04:35:04;;;;;;;25.50;11.73;;;4.50;99.90;;;;;;5059848;28;20183;-84
2022/10/14 04:37:30;;;;;;;36.93;11.43;;;4.50;99.90;;;;;;5065570;28;20224;-84
2022/10/14 04:39:55;;;;;;;21.70;9.77;;;4.60;99.90;;;;;;5058637;28;20193;-84
2022/10/14 04:42:21;;;;;;;27.07;10.50;;;4.60;99.90;;;;;;5028034;28;20191;-84
2022/10/14 04:44:47;;;;;;;18.67;10.00;;;4.60;99.90;;;;;;5054527;28;20657;-84
2022/10/14 04:47:13;;;;;;;23.20;12.13;;;4.70;99.90;;;;;;5038046;28;20726;-83
2022/10/14 04:49:38;;;;;;;36.83;12.37;;;4.70;99.90;;;;;;5073157;28;20212;-86
2022/10/14 04:52:04;;;;;;;30.87;13.60;;;4.80;99.90;;;;;;5044398;28;20277;-84
2022/10/14 04:54:30;;;;;;;33.50;11.10;;;4.80;99.90;;;;;;5044516;28;20687;-84
2022/10/14 04:56:56;;;;;;;25.83;11.67;;;4.90;99.90;;;;;;5043000;28;20549;-84
2022/10/14 04:59:21;;;;;;;24.83;9.20;;;5.00;99.90;;;;;;5066889;28;20657;-84
2022/10/14 05:01:47;;;;;;;15.10;8.60;;;5.00;99.90;;;;;;5055549;28;20213;-84
2022/10/14 05:04:13;;;;;;;16.93;10.00;;;5.00;99.90;;;;;;5055993;28;20312;-85
2022/10/14 05:06:39;;;;;;;31.70;10.57;;;5.10;99.90;;;;;;5035557;28;20397;-85
2022/10/14 05:09:05;;;;;;;29.60;11.03;;;5.10;99.90;;;;;;5064731;28;20179;-85
2022/10/14 05:11:32;;;;;;;20.07;10.57;;;5.20;99.90;;;;;;5049076;28;20214;-85
2022/10/14 05:13:58;;;;;;;27.33;10.87;;;5.20;99.90;;;;;;5073779;28;20252;-85
2022/10/14 05:16:23;;;;;;;23.33;11.43;;;5.30;99.90;;;;;;5069401;28;20640;-85
2022/10/14 05:18:49;;;;;;;35.83;11.47;;;5.30;99.90;;;;;;5044444;28;20180;-85
2022/10/14 05:21:15;;;;;;;26.67;11.83;;;5.30;99.90;;;;;;5052501;28;20273;-85
2022/10/14 05:23:40;;;;;;;23.90;10.90;;;5.30;99.90;;;;;;5060987;28;20899;-85
2022/10/14 05:26:09;;;;;;;34.87;10.27;;;5.40;99.90;;;;;;5032284;28;20183;-85
2022/10/14 05:28:36;;;;;;;14.83;8.47;;;5.40;99.90;;;;;;5049948;28;20194;-85
2022/10/14 05:31:03;;;;;;;25.03;7.87;;;5.50;99.90;;;;;;5039561;28;20211;-85
2022/10/14 05:33:29;;;;;;;19.07;8.57;;;5.50;99.90;;;;;;5046510;28;20187;-86
2022/10/14 05:35:54;;;;;;;17.97;8.83;;;5.50;99.90;;;;;;5050076;28;20228;-87
2022/10/14 05:38:20;;;;;;;24.77;7.10;;;5.60;99.90;;;;;;5037476;28;20198;-86
2022/10/14 05:40:56;;;;;;;20.83;7.27;;;5.60;99.90;;;;;;5053296;28;20186;-85
2022/10/14 05:43:26;;;;;;;24.30;9.00;;;5.70;99.90;;;;;;5053954;28;20710;-85
2022/10/14 05:45:51;;;;;;;18.67;7.53;;;5.70;99.90;;;;;;5054263;28;20275;-86
2022/10/14 05:48:18;;;;;;;20.33;7.33;;;5.80;99.90;;;;;;5054111;28;20317;-85
2022/10/14 05:50:43;;;;;;;11.83;6.27;;;5.80;99.90;;;;;;5071509;28;20183;-85
2022/10/14 05:53:10;;;;;;;12.77;6.60;;;5.80;99.90;;;;;;5054773;28;20413;-86
2022/10/14 05:55:36;;;;;;;13.57;5.70;;;5.80;99.90;;;;;;5063716;28;20183;-87
2022/10/14 05:58:02;;;;;;;10.90;6.37;;;5.90;99.90;;;;;;5044069;28;20646;-86
2022/10/14 06:00:29;;;;;;;8.90;4.83;;;5.90;99.90;;;;;;5062512;28;20177;-86
2022/10/14 06:02:57;;;;;;;8.70;5.00;;;5.90;99.90;;;;;;5046042;28;20643;-87
2022/10/14 06:05:22;;;;;;;8.73;4.77;;;5.90;99.90;;;;;;5054596;28;20179;-87
2022/10/14 06:07:48;;;;;;;11.00;5.30;;;5.90;99.90;;;;;;5035693;28;20266;-86
2022/10/14 06:10:14;;;;;;;11.30;5.60;;;5.90;99.90;;;;;;5046441;28;20214;-88
2022/10/14 06:12:40;;;;;;;7.77;4.90;;;5.90;99.90;;;;;;5023388;28;20306;-86
2022/10/14 06:15:06;;;;;;;10.33;4.93;;;5.90;99.90;;;;;;5046783;28;20194;-86
2022/10/14 06:17:31;;;;;;;13.00;5.93;;;5.90;99.90;;;;;;5049399;28;20186;-87
2022/10/14 06:19:57;;;;;;;8.10;4.60;;;5.90;99.90;;;;;;5072586;28;20183;-87
2022/10/14 06:22:22;;;;;;;9.77;4.93;;;6.00;99.90;;;;;;5055110;28;20218;-86
2022/10/14 06:24:48;;;;;;;11.87;5.10;;;5.90;99.90;;;;;;5038092;28;20180;-88
2022/10/14 06:27:14;;;;;;;8.80;5.13;;;5.90;99.90;;;;;;5038199;28;20186;-87
2022/10/14 06:29:39;;;;;;;6.90;3.97;;;6.00;99.90;;;;;;5053219;28;20183;-87
2022/10/14 06:32:07;;;;;;;17.30;5.13;;;6.00;99.90;;;;;;5018220;28;20575;-87
2022/10/14 06:34:34;;;;;;;11.40;6.73;;;6.00;99.90;;;;;;5034110;28;20183;-87
2022/10/14 06:37:00;;;;;;;10.60;4.87;;;6.10;99.90;;;;;;5052376;28;20179;-85
2022/10/14 06:39:25;;;;;;;6.40;5.03;;;6.00;99.90;;;;;;5052496;28;20640;-86
2022/10/14 06:41:51;;;;;;;6.97;4.10;;;6.00;99.90;;;;;;5052414;28;20188;-85
2022/10/14 06:44:17;;;;;;;10.27;5.30;;;6.00;99.90;;;;;;5034607;28;20168;-86
2022/10/14 06:46:43;;;;;;;6.27;4.07;;;6.00;99.90;;;;;;5052001;28;20234;-86
2022/10/14 06:49:09;;;;;;;5.40;3.53;;;6.00;99.90;;;;;;5052885;28;20182;-86
2022/10/14 06:51:36;;;;;;;10.23;6.10;;;6.00;99.90;;;;;;5037120;28;20258;-87
2022/10/14 06:54:02;;;;;;;9.30;3.60;;;6.00;99.90;;;;;;5038077;28;20234;-86
2022/10/14 06:56:28;;;;;;;8.17;4.23;;;6.00;99.90;;;;;;5056224;28;20180;-86
2022/10/14 06:58:54;;;;;;;7.07;4.13;;;6.00;99.90;;;;;;5037795;28;20706;-88
2022/10/14 07:01:20;;;;;;;9.70;5.53;;;6.10;99.90;;;;;;5056138;28;20190;-86
2022/10/14 07:03:46;;;;;;;6.33;4.47;;;6.10;99.90;;;;;;5056034;28;20179;-86
2022/10/14 07:06:11;;;;;;;8.03;3.70;;;6.20;99.90;;;;;;5038074;28;20176;-86
2022/10/14 07:08:37;;;;;;;6.20;3.50;;;6.20;99.90;;;;;;5038344;28;20184;-87
2022/10/14 07:11:04;;;;;;;5.90;3.97;;;6.20;99.90;;;;;;5021430;28;20187;-86
2022/10/14 07:13:30;;;;;;;10.93;4.70;;;6.20;99.90;;;;;;5021795;28;20202;-87
2022/10/14 07:15:55;;;;;;;11.97;5.17;;;6.30;99.90;;;;;;5038532;28;20624;-86
2022/10/14 07:18:21;;;;;;;12.87;5.50;;;6.30;99.90;;;;;;5038621;28;20195;-86
2022/10/14 07:20:47;;;;;;;16.63;5.20;;;6.40;99.90;;;;;;5056116;28;20176;-86
2022/10/14 07:23:13;;;;;;;8.50;4.27;;;6.50;99.90;;;;;;5021520;28;20281;-85
2022/10/14 07:25:38;;;;;;;8.10;4.60;;;6.50;99.90;;;;;;5055407;28;20175;-89
2022/10/14 07:28:04;;;;;;;9.17;4.63;;;6.60;99.90;;;;;;5058049;28;20190;-86
2022/10/14 07:30:31;;;;;;;6.70;4.57;;;6.60;99.90;;;;;;5066756;28;20194;-86
2022/10/14 07:32:58;;;;;;;9.07;4.50;;;6.50;99.90;;;;;;5033244;28;20207;-87
2022/10/14 07:35:25;;;;;;;7.23;4.50;;;6.50;99.90;;;;;;5063372;28;20183;-88
2022/10/14 07:37:51;;;;;;;9.70;4.50;;;6.50;99.90;;;;;;5063627;28;20178;-86
2022/10/14 07:40:17;;;;;;;12.27;5.20;;;6.60;99.90;;;;;;5041096;28;20872;-86
2022/10/14 07:42:43;;;;;;;11.40;5.47;;;6.60;99.90;;;;;;5043069;28;20187;-87
2022/10/14 07:45:14;;;;;;;7.77;4.97;;;6.60;99.90;;;;;;5062480;28;20572;-86
2022/10/14 07:47:41;;;;;;;8.37;3.90;;;6.60;99.90;;;;;;5038336;28;20691;-85
2022/10/14 07:50:07;;;;;;;10.30;5.83;;;6.70;99.90;;;;;;5037836;28;20180;-87
2022/10/14 07:52:33;;;;;;;9.97;4.73;;;6.70;99.90;;;;;;5020663;28;20207;-87
2022/10/14 07:54:59;;;;;;;7.10;5.03;;;6.70;99.90;;;;;;5037634;28;20663;-86
2022/10/14 07:57:26;;;;;;;6.57;4.93;;;6.70;99.90;;;;;;5037346;28;20191;-85
2022/10/14 07:59:52;;;;;;;7.77;4.77;;;6.80;99.90;;;;;;5037101;28;20266;-86
2022/10/14 08:02:18;;;;;;;9.33;4.03;;;6.90;99.90;;;;;;5036429;28;20275;-86
2022/10/14 08:04:44;;;;;;;10.10;4.87;;;6.80;99.90;;;;;;5037229;28;20176;-89
2022/10/14 08:07:10;;;;;;;9.17;5.07;;;6.80;99.90;;;;;;5037214;28;20188;-86
2022/10/14 08:09:35;;;;;;;9.83;4.87;;;6.90;99.90;;;;;;5037048;28;20180;-86
2022/10/14 08:12:01;;;;;;;13.40;5.47;;;7.00;99.90;;;;;;5020397;28;20216;-86
2022/10/14 08:14:27;;;;;;;6.90;4.07;;;7.00;99.90;;;;;;5036771;28;20179;-86
2022/10/14 08:16:52;;;;;;;7.33;4.63;;;7.00;99.90;;;;;;5019827;28;20545;-86
2022/10/14 08:19:18;;;;;;;8.77;4.67;;;7.10;99.90;;;;;;5020182;28;20186;-86
2022/10/14 08:21:44;;;;;;;9.83;5.50;;;7.10;99.90;;;;;;5036839;28;20643;-86
2022/10/14 08:24:10;;;;;;;8.10;4.27;;;7.20;99.90;;;;;;5037019;28;20590;-87
2022/10/14 08:26:38;;;;;;;11.07;5.20;;;7.30;99.90;;;;;;5037444;28;20629;-87
2022/10/14 08:29:09;;;;;;;8.33;5.77;;;7.30;99.90;;;;;;5055777;28;20182;-87
2022/10/14 08:31:35;;;;;;;10.63;6.73;;;7.40;99.90;;;;;;5054959;28;20636;-87
2022/10/14 08:34:01;;;;;;;8.37;5.20;;;7.50;99.90;;;;;;5054360;28;20187;-86
2022/10/14 08:36:27;;;;;;;10.83;4.70;;;7.50;99.90;;;;;;5070053;28;20225;-87
2022/10/14 08:38:54;;;;;;;7.93;4.87;;;7.50;99.90;;;;;;5089748;28;20639;-87
2022/10/14 08:41:42;;;;;;;9.63;4.77;;;7.50;99.90;;;;;;5072656;28;20186;-88
2022/10/14 08:44:26;;;;;;;9.07;5.67;;;7.60;99.90;;;;;;5074057;28;20179;-86
2022/10/14 08:47:01;;;;;;;13.43;5.47;;;7.70;99.90;;;;;;5056162;28;20249;-86
2022/10/14 08:49:34;;;;;;;12.70;5.37;;;7.70;99.90;;;;;;5078751;28;20250;-86
2022/10/14 08:52:02;;;;;;;9.37;4.97;;;7.70;99.90;;;;;;5078663;28;20203;-87
2022/10/14 08:54:30;;;;;;;8.40;5.37;;;7.80;99.90;;;;;;5061501;28;20265;-86
2022/10/14 08:56:57;;;;;;;9.40;5.37;;;7.80;99.90;;;;;;5075743;28;20179;-87
2022/10/14 08:59:25;;;;;;;11.87;5.77;;;7.90;99.90;;;;;;5041083;28;20180;-89
2022/10/14 09:02:10;;;;;;;13.03;6.07;;;8.00;99.90;;;;;;5074544;28;20190;-87
2022/10/14 09:04:36;;;;;;;10.80;6.07;;;8.10;99.90;;;;;;5056424;28;20236;-87
2022/10/14 09:07:03;;;;;;;11.57;5.60;;;8.20;99.90;;;;;;5039593;28;20280;-86
2022/10/14 09:09:44;;;;;;;9.07;4.67;;;8.20;99.90;;;;;;5055921;28;20579;-87
2022/10/14 09:12:16;;;;;;;13.70;5.10;;;8.20;99.90;;;;;;5076539;28;20213;-86
2022/10/14 09:14:58;;;;;;;12.60;6.50;;;8.20;99.90;;;;;;5094005;28;20197;-86
2022/10/14 09:17:30;;;;;;;12.70;5.67;;;8.30;99.90;;;;;;5076800;28;20201;-86
2022/10/14 09:20:00;;;;;;;8.77;5.17;;;8.50;99.90;;;;;;5076816;28;20265;-86
2022/10/14 09:22:26;;;;;;;13.40;6.43;;;8.60;99.90;;;;;;5076000;28;20208;-85
2022/10/14 09:24:52;;;;;;;13.27;5.60;;;8.60;99.90;;;;;;5061591;28;20179;-88
2022/10/14 09:27:20;;;;;;;12.17;6.20;;;8.80;99.90;;;;;;5088158;28;20210;-86
2022/10/14 09:29:48;;;;;;;12.73;5.47;;;8.90;99.90;;;;;;5089518;28;20183;-87
2022/10/14 09:32:26;;;;;;;11.87;6.07;;;8.90;99.90;;;;;;5085729;28;20259;-86
2022/10/14 09:34:52;;;;;;;9.67;5.93;;;9.00;99.90;;;;;;5075771;28;20187;-88
2022/10/14 09:37:36;;;;;;;10.60;6.70;;;9.10;99.90;;;;;;5075727;28;20179;-87
2022/10/14 09:40:12;;;;;;;9.67;6.37;;;9.20;99.90;;;;;;5078609;28;20205;-88
2022/10/14 09:43:10;;;;;;;13.00;6.33;;;9.30;99.90;;;;;;5101910;28;20166;-90
2022/10/14 09:46:09;;;;;;;12.60;6.53;;;9.40;99.90;;;;;;5086321;28;20185;-87
2022/10/14 09:48:38;;;;;;;9.53;5.33;;;9.50;99.90;;;;;;5085373;28;20238;-89
2022/10/14 09:51:09;;;;;;;12.00;6.67;;;9.60;99.90;;;;;;5074897;28;20183;-88
2022/10/14 09:53:45;;;;;;;14.90;6.50;;;9.60;99.90;;;;;;5054128;28;20191;-88
2022/10/14 09:56:12;;;;;;;14.67;6.00;;;9.70;99.90;;;;;;5053655;28;20206;-89
2022/10/14 09:58:52;;;;;;;12.93;6.47;;;9.70;99.90;;;;;;5054194;28;20180;-87
2022/10/14 10:01:20;;;;;;;13.90;6.63;;;9.80;99.90;;;;;;5053151;28;20616;-90
2022/10/14 10:03:50;;;;;;;14.77;7.10;;;9.80;99.90;;;;;;5052198;28;20318;-87
2022/10/14 10:06:21;;;;;;;16.30;7.97;;;9.70;99.90;;;;;;5052444;28;20180;-86
2022/10/14 10:08:59;;;;;;;10.27;5.93;;;9.80;99.90;;;;;;5087254;28;20176;-89
2022/10/14 10:11:38;;;;;;;11.87;5.67;;;9.90;99.90;;;;;;5052810;28;20325;-88
2022/10/14 10:14:19;;;;;;;16.93;7.00;;;9.90;99.90;;;;;;5054520;28;20180;-88
2022/10/14 10:16:45;;;;;;;14.13;6.67;;;10.00;99.90;;;;;;5069001;28;20199;-87
2022/10/14 10:19:33;;;;;;;11.57;6.95;;;10.10;99.90;;;;;;5071074;28;20266;-86
2022/10/14 10:22:21;;;;;;;14.10;7.23;;;10.10;99.90;;;;;;5054219;28;20225;-89
2022/10/14 10:25:11;;;;;;;12.23;7.07;;;10.20;99.90;;;;;;5086694;28;20214;-87
2022/10/14 10:27:44;;;;;;;10.40;5.93;;;10.30;99.90;;;;;;5056765;28;20180;-88
2022/10/14 10:30:45;;;;;;;11.85;6.40;;;10.40;99.90;;;;;;5045996;28;20649;-86
2022/10/14 10:33:29;;;;;;;11.63;6.35;;;10.50;99.90;;;;;;5053768;28;20698;-90
2022/10/14 10:36:09;;;;;;;17.33;6.97;;;10.40;99.90;;;;;;5037112;28;20186;-86
2022/10/14 10:38:58;;;;;;;13.37;6.50;;;10.40;99.90;;;;;;5056966;28;20179;-87
2022/10/14 10:41:42;;;;;;;12.23;7.30;;;10.50;99.90;;;;;;5049400;28;20180;-89
2022/10/14 10:44:39;;;;;;;10.05;5.50;;;10.60;99.90;;;;;;5047865;28;20179;-87
2022/10/14 10:47:30;;;;;;;12.17;6.23;;;10.70;99.90;;;;;;5048074;28;20216;-89
2022/10/14 10:49:58;;;;;;;10.32;6.35;;;10.80;99.90;;;;;;5043016;28;20221;-88
2022/10/14 10:52:29;;;;;;;12.32;6.25;;;11.00;99.90;;;;;;5063375;28;20203;-86
2022/10/14 10:55:13;;;;;;;12.43;6.35;;;11.20;99.90;;;;;;5044585;28;20184;-88
2022/10/14 10:58:10;;;;;;;16.10;6.55;;;11.40;99.90;;;;;;5072646;28;20183;-86
2022/10/14 11:00:55;;;;;;;17.35;6.85;;;11.50;99.90;;;;;;5075894;28;20171;-87
2022/10/14 11:03:46;;;;;;;19.90;8.05;;;11.60;99.90;;;;;;5059033;28;20191;-85
2022/10/14 11:12:01;;;;;;;15.50;7.72;;;11.70;99.90;;;;;;5050448;28;20171;-89
2022/10/14 11:12:21;;;;;;;11.98;6.63;;;12.00;99.90;;;;;;5068546;28;20306;-88
2022/10/14 11:15:14;;;;;;;12.30;6.78;;;9.20;99.90;;;;;;5044293;28;20656;-89
2022/10/14 11:18:07;;;;;;;14.82;7.30;;;12.10;99.90;;;;;;5068153;28;20171;-87
2022/10/14 11:21:20;;;;;;;15.80;7.28;;;12.30;99.90;;;;;;5055808;28;20199;-87
2022/10/14 11:24:10;;;;;;;23.30;6.38;;;12.30;99.90;;;;;;5047306;28;20179;-87
2022/10/14 11:26:58;;;;;;;14.18;6.20;;;12.30;99.90;;;;;;5080087;28;20199;-88
2022/10/14 11:29:26;;;;;;;17.92;8.40;;;12.40;99.90;;;;;;5054402;28;20178;-87
2022/10/14 11:32:02;;;;;;;16.17;8.02;;;12.50;99.90;;;;;;5056705;28;20682;-86
2022/10/14 11:35:01;;;;;;;12.32;6.60;;;12.60;99.90;;;;;;5056610;28;20175;-87
2022/10/14 11:38:07;;;;;;;13.10;6.57;;;12.70;99.90;;;;;;5058368;28;20246;-87
2022/10/14 11:40:48;;;;;;;14.98;6.07;;;12.90;99.90;;;;;;5049437;28;20636;-88
2022/10/14 11:43:38;;;;;;;13.60;6.70;;;13.00;99.90;;;;;;5074871;28;20183;-90
2022/10/14 11:46:13;;;;;;;17.50;6.85;;;13.20;99.90;;;;;;5073269;28;20172;-86
2022/10/14 11:48:52;;;;;;;15.18;7.18;;;13.20;99.90;;;;;;5044284;28;20576;-85
2022/10/14 11:51:26;;;;;;;16.45;7.40;;;13.20;99.90;;;;;;5034087;28;20242;-87
2022/10/14 11:54:14;;;;;;;12.02;6.65;;;13.20;99.90;;;;;;5035471;28;20175;-88
2022/10/14 11:57:05;;;;;;;16.13;6.45;;;13.30;99.90;;;;;;5042049;28;20180;-86
2022/10/14 11:59:45;;;;;;;16.65;7.97;;;13.40;99.90;;;;;;5057525;28;20181;-87
2022/10/14 12:02:50;;;;;;;11.23;6.40;;;13.50;99.90;;;;;;5054627;28;20179;-86
2022/10/14 12:05:35;;;;;;;21.33;8.23;;;13.60;99.90;;;;;;5030276;28;20195;-87
2022/10/14 12:08:09;;;;;;;17.15;7.57;;;13.80;99.90;;;;;;5032324;28;20181;-86
2022/10/14 12:10:41;;;;;;;13.35;7.32;;;13.80;99.90;;;;;;5034103;28;20176;-87
2022/10/14 12:13:14;;;;;;;17.35;8.60;;;13.90;99.90;;;;;;5033844;28;20238;-86
2022/10/14 12:15:47;;;;;;;15.75;8.07;;;13.90;99.90;;;;;;5029487;28;20223;-90
2022/10/14 12:18:12;;;;;;;15.75;7.60;;;13.90;99.90;;;;;;5016889;28;20180;-87
2022/10/14 12:21:02;;;;;;;16.02;6.88;;;14.00;99.90;;;;;;5016439;28;21005;-88
2022/10/14 12:23:54;;;;;;;11.63;6.63;;;14.10;99.90;;;;;;5018759;28;20177;-87
2022/10/14 12:26:19;;;;;;;18.02;7.50;;;14.30;99.90;;;;;;5026610;28;20165;-89
2022/10/14 12:28:46;;;;;;;13.25;7.65;;;14.60;99.90;;;;;;5023126;28;20190;-88
2022/10/14 12:31:31;;;;;;;15.02;7.22;;;14.60;99.90;;;;;;5031078;28;20223;-88
2022/10/14 12:34:15;;;;;;;19.63;7.65;;;14.60;99.90;;;;;;5029569;28;20306;-88
2022/10/14 12:36:44;;;;;;;16.05;8.02;;;14.60;99.90;;;;;;5027609;28;20185;-87
2022/10/14 12:39:16;;;;;;;13.73;7.40;;;14.50;99.90;;;;;;5020503;28;20180;-86
2022/10/14 12:41:54;;;;;;;15.85;7.40;;;14.50;99.90;;;;;;5026748;28;20884;-88
2022/10/14 12:44:28;;;;;;;14.75;7.53;;;14.50;99.90;;;;;;5024013;28;20208;-88
2022/10/14 12:46:54;;;;;;;17.58;7.65;;;14.60;99.90;;;;;;5020021;28;20315;-87
2022/10/14 12:49:31;;;;;;;15.38;6.88;;;14.60;99.90;;;;;;5029737;28;20280;-87
2022/10/14 12:52:04;;;;;;;16.13;6.90;;;14.60;99.90;;;;;;5046297;28;20291;-87
2022/10/14 12:54:31;;;;;;;15.30;8.20;;;14.50;99.90;;;;;;5033934;28;20385;-87
2022/10/14 12:57:24;;;;;;;14.57;7.13;;;14.50;99.90;;;;;;5051251;28;20176;-88
2022/10/14 12:59:52;;;;;;;14.82;7.55;;;14.40;99.90;;;;;;5048739;28;20172;-88
2022/10/14 13:02:32;;;;;;;14.82;7.90;;;14.30;99.90;;;;;;5042943;28;20276;-87
2022/10/14 13:05:08;;;;;;;15.00;7.57;;;14.20;99.90;;;;;;5045295;28;20237;-86
2022/10/14 13:07:41;;;;;;;11.32;7.07;;;14.80;99.90;;;;;;5050234;28;20196;-88
2022/10/14 13:10:37;;;;;;;16.83;6.95;;;15.00;99.90;;;;;;5038817;28;20176;-87